Time;durP1;ratioP1;P1;durP2;ratioP2;P2;SDS_P1;SDS_P2;PMS_P1;PMS_P2;Temp;Humidity;BMP_temperature;BMP_pressure;BME280_temperature;BME280_humidity;BME280_pressure;Samples;Min_cycle;Max_cycle;Signal;HPM_P1;HPM_P2
2022/10/27 00:01:16;;;;;;;5.15;2.33;;;16.40;69.90;;;;;;4798664;29;20046;-50
2022/10/27 00:03:49;;;;;;;5.80;2.58;;;16.30;69.80;;;;;;4797004;29;20077;-54
2022/10/27 00:06:17;;;;;;;3.85;2.40;;;16.30;69.80;;;;;;4801898;29;20043;-53
2022/10/27 00:08:44;;;;;;;4.35;2.25;;;16.30;69.80;;;;;;4802958;29;20100;-53
2022/10/27 00:11:11;;;;;;;3.60;2.47;;;16.30;69.50;;;;;;4798117;29;20049;-54
2022/10/27 00:13:38;;;;;;;3.00;2.10;;;16.20;69.50;;;;;;4799797;29;20055;-50
2022/10/27 00:16:08;;;;;;;3.30;2.10;;;16.20;69.50;;;;;;4801966;29;20049;-51
2022/10/27 00:18:41;;;;;;;4.70;2.40;;;16.20;69.50;;;;;;4810446;29;20061;-52
2022/10/27 00:21:12;;;;;;;;;;;16.20;69.50;;;;;;4796836;29;20043;-53
2022/10/27 00:23:39;;;;;;;2.88;1.95;;;16.20;69.60;;;;;;4799664;29;19948;-54
2022/10/27 00:26:09;;;;;;;3.97;2.30;;;16.10;69.20;;;;;;4801730;29;20043;-51
2022/10/27 00:28:37;;;;;;;2.13;1.88;;;16.10;69.20;;;;;;4802778;29;20077;-53
2022/10/27 00:31:10;;;;;;;4.13;2.55;;;16.10;69.50;;;;;;4797283;29;20512;-53
2022/10/27 00:33:40;;;;;;;3.47;2.25;;;16.00;69.60;;;;;;4800733;29;20055;-50
2022/10/27 00:36:15;;;;;;;4.38;2.30;;;16.00;69.70;;;;;;4802086;29;20445;-51
2022/10/27 00:38:42;;;;;;;2.60;1.60;;;16.00;69.80;;;;;;4799254;29;20051;-55
2022/10/27 00:41:23;;;;;;;3.47;1.90;;;15.90;69.70;;;;;;4797370;29;20047;-52
2022/10/27 00:43:51;;;;;;;2.00;1.65;;;15.90;69.60;;;;;;4799091;29;20046;-51
2022/10/27 00:46:24;;;;;;;3.53;2.20;;;15.90;69.50;;;;;;4802108;29;20061;-51
2022/10/27 00:48:57;;;;;;;2.25;2.05;;;15.80;69.60;;;;;;4801423;29;20062;-52
2022/10/27 00:51:26;;;;;;;3.35;1.90;;;15.80;69.60;;;;;;4798163;29;20051;-51
2022/10/27 00:53:54;;;;;;;3.65;2.10;;;15.80;69.70;;;;;;4795131;29;20065;-49
2022/10/27 00:56:23;;;;;;;2.80;1.92;;;15.80;69.70;;;;;;4805099;29;20597;-51
2022/10/27 00:58:50;;;;;;;2.65;2.25;;;15.80;69.70;;;;;;4803021;29;20058;-52
2022/10/27 01:01:17;;;;;;;5.50;2.05;;;15.70;69.60;;;;;;4801381;29;20043;-52
2022/10/27 01:03:44;;;;;;;5.03;1.75;;;15.70;69.60;;;;;;4805230;29;20042;-53
2022/10/27 01:06:13;;;;;;;1.90;1.75;;;15.70;69.60;;;;;;4805059;29;20100;-50
2022/10/27 01:08:40;;;;;;;2.88;1.75;;;15.70;69.40;;;;;;4802100;29;20043;-54
2022/10/27 01:11:09;;;;;;;3.45;1.90;;;15.60;69.20;;;;;;4809223;29;20091;-53
2022/10/27 01:13:36;;;;;;;3.40;1.58;;;15.60;69.10;;;;;;4805989;29;20054;-50
2022/10/27 01:16:15;;;;;;;2.40;1.60;;;15.60;69.20;;;;;;4801354;29;20496;-55
2022/10/27 01:19:00;;;;;;;3.30;1.95;;;15.60;69.20;;;;;;4798173;29;20058;-53
2022/10/27 01:21:51;;;;;;;2.75;1.85;;;15.50;69.00;;;;;;4803954;29;20053;-53
2022/10/27 01:24:40;;;;;;;2.35;1.65;;;15.50;69.10;;;;;;4785861;29;20051;-50
2022/10/27 01:27:48;;;;;;;4.18;2.30;;;15.40;69.00;;;;;;4798102;29;20469;-52
2022/10/27 01:30:18;;;;;;;2.45;1.52;;;15.40;68.90;;;;;;4818080;29;20095;-52
2022/10/27 01:33:06;;;;;;;3.35;1.52;;;15.30;68.90;;;;;;4805046;29;20051;-54
2022/10/27 01:35:47;;;;;;;3.25;1.40;;;15.30;68.90;;;;;;4799210;29;20065;-50
2022/10/27 01:38:27;;;;;;;1.73;1.63;;;15.30;68.80;;;;;;4798127;29;20548;-54
2022/10/27 01:40:59;;;;;;;5.60;1.80;;;15.20;69.00;;;;;;4803686;29;20069;-51
2022/10/27 01:43:28;;;;;;;1.52;1.30;;;15.20;69.00;;;;;;4804522;29;20570;-51
2022/10/27 01:45:58;;;;;;;3.53;1.50;;;15.20;69.10;;;;;;4798768;29;20049;-51
2022/10/27 01:48:35;;;;;;;2.15;1.58;;;15.10;69.30;;;;;;4803820;29;20203;-54
2022/10/27 01:51:03;;;;;;;3.15;1.77;;;15.10;69.60;;;;;;4803854;29;20092;-54
2022/10/27 01:53:33;;;;;;;5.32;2.20;;;15.10;69.80;;;;;;4801336;29;20050;-53
2022/10/27 01:55:59;;;;;;;5.93;1.73;;;15.10;69.80;;;;;;4799710;29;20061;-50
2022/10/27 01:58:48;;;;;;;3.58;1.90;;;15.10;69.80;;;;;;4801325;29;20058;-55
2022/10/27 02:01:39;;;;;;;4.03;2.00;;;15.00;69.90;;;;;;4799417;29;20522;-50
2022/10/27 02:04:25;;;;;;;2.10;1.90;;;15.00;70.00;;;;;;4803262;29;20061;-53
2022/10/27 02:07:02;;;;;;;3.63;2.00;;;15.00;70.00;;;;;;4821672;29;20782;-54
2022/10/27 02:09:38;;;;;;;4.18;2.03;;;15.00;69.80;;;;;;4798748;29;20057;-54
2022/10/27 02:12:12;;;;;;;2.85;1.60;;;15.00;70.20;;;;;;4803913;29;20047;-51
2022/10/27 02:14:41;;;;;;;4.22;2.00;;;15.00;70.10;;;;;;4799912;29;20129;-53
2022/10/27 02:17:11;;;;;;;3.20;2.15;;;15.00;70.00;;;;;;4804041;29;20054;-54
2022/10/27 02:19:41;;;;;;;4.80;2.78;;;15.00;70.20;;;;;;4802708;29;20061;-53
2022/10/27 02:22:10;;;;;;;2.67;2.35;;;15.00;70.10;;;;;;4803583;29;20051;-54
2022/10/27 02:24:37;;;;;;;2.97;2.00;;;14.90;70.00;;;;;;4799937;29;20046;-55
2022/10/27 02:27:08;;;;;;;2.83;2.63;;;14.90;70.00;;;;;;4804183;29;20500;-53
2022/10/27 02:29:47;;;;;;;4.70;1.90;;;14.90;70.00;;;;;;4803354;29;20134;-53
2022/10/27 02:32:19;;;;;;;2.78;2.50;;;15.00;70.10;;;;;;4800578;29;20046;-54
2022/10/27 02:34:47;;;;;;;2.97;2.20;;;14.90;70.10;;;;;;4800262;29;20078;-54
2022/10/27 02:37:37;;;;;;;4.00;2.50;;;14.90;70.00;;;;;;4803144;29;20047;-55
2022/10/27 02:40:07;;;;;;;3.83;1.98;;;14.90;70.10;;;;;;4802857;29;20062;-54
2022/10/27 02:42:36;;;;;;;4.40;2.08;;;14.90;69.70;;;;;;4800626;29;20062;-52
2022/10/27 02:45:03;;;;;;;3.03;2.30;;;14.90;69.80;;;;;;4803131;29;20596;-53
2022/10/27 02:47:30;;;;;;;3.60;2.10;;;14.80;69.80;;;;;;4802904;29;20057;-53
2022/10/27 02:49:59;;;;;;;3.90;2.38;;;14.80;69.90;;;;;;4799773;29;20047;-53
2022/10/27 02:52:26;;;;;;;3.88;2.17;;;14.80;70.00;;;;;;4795401;29;20444;-53
2022/10/27 02:54:52;;;;;;;2.58;2.38;;;14.80;70.00;;;;;;4802622;29;20428;-53
2022/10/27 02:57:19;;;;;;;3.05;2.72;;;14.80;70.00;;;;;;4803268;29;20046;-52
2022/10/27 02:59:48;;;;;;;3.53;1.98;;;14.80;70.00;;;;;;4801368;29;20539;-53
2022/10/27 03:02:28;;;;;;;4.28;2.70;;;14.80;70.00;;;;;;4801795;29;20135;-52
2022/10/27 03:04:55;;;;;;;4.63;2.45;;;14.80;70.10;;;;;;4803679;29;20039;-54
2022/10/27 03:07:21;;;;;;;2.90;2.60;;;14.80;70.20;;;;;;4802761;29;20039;-54
2022/10/27 03:09:50;;;;;;;3.53;2.45;;;14.80;70.20;;;;;;4797501;29;20035;-50
2022/10/27 03:12:17;;;;;;;5.55;2.28;;;14.80;70.20;;;;;;4800063;29;20508;-52
2022/10/27 03:14:43;;;;;;;4.47;2.63;;;14.80;70.80;;;;;;4801482;29;20157;-54
2022/10/27 03:17:10;;;;;;;3.50;2.63;;;14.70;70.20;;;;;;4808362;29;20385;-51
2022/10/27 03:19:39;;;;;;;3.20;2.38;;;14.70;70.20;;;;;;4807503;29;20059;-54
2022/10/27 03:22:05;;;;;;;3.13;2.75;;;14.70;70.50;;;;;;4799236;29;20050;-55
2022/10/27 03:24:32;;;;;;;5.15;2.75;;;14.70;70.70;;;;;;4801973;29;20449;-54
2022/10/27 03:26:59;;;;;;;5.07;2.80;;;14.70;71.10;;;;;;4803216;29;20051;-52
2022/10/27 03:29:28;;;;;;;3.10;2.40;;;14.70;71.20;;;;;;4796620;29;20437;-54
2022/10/27 03:31:54;;;;;;;3.85;2.15;;;14.70;71.60;;;;;;4802774;29;20112;-53
2022/10/27 03:34:21;;;;;;;4.38;2.42;;;14.70;71.60;;;;;;4802414;29;20065;-53
2022/10/27 03:36:48;;;;;;;7.13;2.33;;;14.70;71.60;;;;;;4803278;29;20065;-50
2022/10/27 03:39:14;;;;;;;3.55;2.10;;;14.70;71.60;;;;;;4800408;29;20047;-55
2022/10/27 03:41:41;;;;;;;4.07;2.38;;;14.70;71.40;;;;;;4802230;29;20050;-53
2022/10/27 03:44:18;;;;;;;4.45;2.13;;;14.70;71.30;;;;;;4801058;29;20141;-48
2022/10/27 03:46:45;;;;;;;3.50;2.30;;;14.70;71.10;;;;;;4801650;29;20497;-49
2022/10/27 03:49:11;;;;;;;3.15;1.92;;;14.70;70.90;;;;;;4799610;29;20039;-48
2022/10/27 03:51:38;;;;;;;2.72;1.80;;;14.70;70.70;;;;;;4802190;29;20050;-48
2022/10/27 03:54:10;;;;;;;4.70;2.30;;;14.70;70.60;;;;;;4784486;29;20058;-49
2022/10/27 03:56:37;;;;;;;4.47;2.15;;;14.70;70.50;;;;;;4783702;30;20051;-48
2022/10/27 03:59:03;;;;;;;4.88;2.20;;;14.70;70.40;;;;;;4784548;29;20047;-48
2022/10/27 04:01:33;;;;;;;5.43;2.33;;;14.70;70.50;;;;;;4784046;29;20044;-50
2022/10/27 04:04:00;;;;;;;4.25;2.20;;;14.60;70.50;;;;;;4789960;29;20111;-49
2022/10/27 04:06:29;;;;;;;4.07;2.28;;;14.60;70.60;;;;;;4792961;29;20055;-50
2022/10/27 04:08:55;;;;;;;3.75;2.13;;;14.60;70.50;;;;;;4785155;30;20070;-52
2022/10/27 04:11:22;;;;;;;7.80;2.58;;;14.60;70.60;;;;;;4783207;30;20051;-50
2022/10/27 04:13:49;;;;;;;6.03;1.85;;;14.50;70.70;;;;;;4783556;30;20052;-49
2022/10/27 04:16:15;;;;;;;7.85;2.85;;;14.50;71.00;;;;;;4783344;30;20497;-49
2022/10/27 04:18:42;;;;;;;8.52;3.33;;;14.60;71.10;;;;;;4784327;29;20047;-48
2022/10/27 04:21:09;;;;;;;6.90;2.63;;;14.50;71.10;;;;;;4784059;29;20058;-49
2022/10/27 04:23:35;;;;;;;4.38;2.67;;;14.60;71.20;;;;;;4784561;29;20135;-49
2022/10/27 04:26:02;;;;;;;5.28;2.97;;;14.50;71.30;;;;;;4783314;29;20035;-52
2022/10/27 04:28:29;;;;;;;6.00;2.53;;;14.50;71.40;;;;;;4785550;29;20505;-48
2022/10/27 04:30:56;;;;;;;6.97;2.35;;;14.50;71.40;;;;;;4787575;29;20651;-47
2022/10/27 04:33:25;;;;;;;8.02;2.83;;;14.50;71.50;;;;;;4785937;29;20066;-49
2022/10/27 04:35:55;;;;;;;3.90;2.33;;;14.50;71.50;;;;;;4783275;29;20520;-48
2022/10/27 04:38:22;;;;;;;5.97;3.08;;;14.50;71.50;;;;;;4788301;29;20047;-49
2022/10/27 04:40:51;;;;;;;3.83;1.92;;;14.50;71.60;;;;;;4790038;29;20059;-48
2022/10/27 04:43:18;;;;;;;5.75;2.35;;;14.50;71.60;;;;;;4786066;29;20039;-53
2022/10/27 04:45:45;;;;;;;5.38;2.75;;;14.50;71.90;;;;;;4786404;29;20497;-51
2022/10/27 04:48:12;;;;;;;5.20;1.80;;;14.50;71.90;;;;;;4788001;29;20073;-49
2022/10/27 04:50:39;;;;;;;10.30;1.75;;;14.50;71.60;;;;;;4786421;29;20048;-52
2022/10/27 04:53:05;;;;;;;4.50;2.50;;;14.50;71.60;;;;;;4788162;29;20047;-51
2022/10/27 04:55:32;;;;;;;8.52;2.47;;;14.50;71.80;;;;;;4786228;30;20130;-49
2022/10/27 04:57:59;;;;;;;5.32;1.92;;;14.50;72.10;;;;;;4787125;29;20509;-48
2022/10/27 05:00:30;;;;;;;5.70;2.85;;;14.50;71.90;;;;;;4785937;30;20135;-47
2022/10/27 05:03:02;;;;;;;2.55;1.80;;;14.50;71.80;;;;;;4784476;30;20126;-50
2022/10/27 05:05:29;;;;;;;6.25;1.90;;;14.50;71.90;;;;;;4783359;29;20047;-49
2022/10/27 05:07:59;;;;;;;5.32;2.38;;;14.50;71.80;;;;;;4785194;29;20040;-50
2022/10/27 05:10:27;;;;;;;6.93;1.63;;;14.60;71.90;;;;;;4783922;29;20142;-50
2022/10/27 05:12:53;;;;;;;4.30;2.10;;;14.50;72.00;;;;;;4785473;29;20259;-49
2022/10/27 05:15:20;;;;;;;4.90;2.45;;;14.50;71.90;;;;;;4785145;29;20054;-48
2022/10/27 05:17:47;;;;;;;7.82;2.90;;;14.60;71.90;;;;;;4783764;29;20055;-51
2022/10/27 05:20:15;;;;;;;3.53;2.15;;;14.60;71.80;;;;;;4784786;29;20055;-51
2022/10/27 05:22:42;;;;;;;4.15;1.77;;;14.50;71.60;;;;;;4784336;29;20051;-53
2022/10/27 05:25:10;;;;;;;7.60;2.22;;;14.60;71.60;;;;;;4798407;29;20046;-48
2022/10/27 05:27:37;;;;;;;4.28;2.45;;;14.50;71.50;;;;;;4789022;29;20489;-50
2022/10/27 05:30:05;;;;;;;8.10;2.03;;;14.50;71.50;;;;;;4798401;29;20051;-52
2022/10/27 05:32:32;;;;;;;6.90;2.40;;;14.50;71.50;;;;;;4785307;29;20537;-48
2022/10/27 05:34:59;;;;;;;11.30;2.83;;;14.50;71.50;;;;;;4783967;30;20047;-51
2022/10/27 05:37:28;;;;;;;5.75;2.20;;;14.50;71.60;;;;;;4780689;29;20058;-51
2022/10/27 05:39:54;;;;;;;11.93;2.53;;;14.50;71.60;;;;;;4783876;29;20047;-53
2022/10/27 05:42:21;;;;;;;8.02;2.92;;;14.50;71.50;;;;;;4784912;29;20097;-51
2022/10/27 05:44:56;;;;;;;13.10;2.88;;;14.50;71.50;;;;;;4785834;29;20570;-52
2022/10/27 05:47:22;;;;;;;6.57;2.45;;;14.50;71.40;;;;;;4785675;29;20049;-48
2022/10/27 05:49:49;;;;;;;5.80;2.47;;;14.50;71.30;;;;;;4785276;30;20062;-52
2022/10/27 05:52:15;;;;;;;7.70;2.92;;;14.50;71.50;;;;;;4784818;30;20055;-50
2022/10/27 05:54:42;;;;;;;7.68;2.50;;;14.50;71.50;;;;;;4785796;30;20047;-52
2022/10/27 05:57:09;;;;;;;9.50;2.95;;;14.50;71.60;;;;;;4786333;29;20047;-53
2022/10/27 05:59:35;;;;;;;9.63;3.65;;;14.50;71.80;;;;;;4784944;29;20063;-51
2022/10/27 06:02:02;;;;;;;7.05;2.88;;;14.50;72.00;;;;;;4797227;29;20044;-52
2022/10/27 06:04:29;;;;;;;4.90;2.47;;;14.50;72.10;;;;;;4785045;29;20077;-52
2022/10/27 06:06:55;;;;;;;4.88;2.13;;;14.50;72.10;;;;;;4786697;30;20041;-52
2022/10/27 06:09:22;;;;;;;9.90;2.85;;;14.50;72.00;;;;;;4785357;30;20050;-51
2022/10/27 06:11:49;;;;;;;6.20;2.38;;;14.60;71.90;;;;;;4785404;29;20047;-49
2022/10/27 06:14:16;;;;;;;6.50;2.60;;;14.50;71.80;;;;;;4785781;29;20058;-48
2022/10/27 06:16:42;;;;;;;5.68;2.40;;;14.60;72.00;;;;;;4785612;29;20079;-53
2022/10/27 06:19:09;;;;;;;13.90;2.05;;;14.60;71.60;;;;;;4784458;29;20054;-48
2022/10/27 06:21:35;;;;;;;7.05;2.20;;;14.50;71.60;;;;;;4785313;29;20058;-52
2022/10/27 06:24:02;;;;;;;4.05;2.15;;;14.50;71.80;;;;;;4785126;29;20039;-52
2022/10/27 06:26:34;;;;;;;9.70;2.78;;;14.50;71.80;;;;;;4784527;29;20402;-50
2022/10/27 06:29:01;;;;;;;6.65;2.50;;;14.50;71.90;;;;;;4785436;30;20047;-48
2022/10/27 06:31:27;;;;;;;5.53;2.35;;;14.50;71.80;;;;;;4783818;30;20051;-49
2022/10/27 06:33:54;;;;;;;7.38;2.30;;;14.50;72.00;;;;;;4784624;30;20051;-48
2022/10/27 06:36:21;;;;;;;8.38;2.88;;;14.50;72.30;;;;;;4785875;29;20043;-52
2022/10/27 06:38:47;;;;;;;6.15;2.33;;;14.50;72.10;;;;;;4784625;29;20126;-51
2022/10/27 06:41:14;;;;;;;4.57;2.08;;;14.50;72.10;;;;;;4784821;29;20062;-51
2022/10/27 06:43:44;;;;;;;5.28;2.50;;;14.50;72.00;;;;;;4785971;29;20059;-50
2022/10/27 06:46:10;;;;;;;4.88;2.30;;;14.50;72.00;;;;;;4786604;30;20051;-51
2022/10/27 06:48:37;;;;;;;9.35;2.50;;;14.50;71.90;;;;;;4784842;30;20047;-53
2022/10/27 06:51:04;;;;;;;7.18;2.42;;;14.50;72.30;;;;;;4780944;29;20051;-52
2022/10/27 06:53:30;;;;;;;5.38;2.67;;;14.50;71.80;;;;;;4784422;29;20059;-50
2022/10/27 06:55:58;;;;;;;10.52;2.90;;;14.50;71.90;;;;;;4783828;30;20047;-49
2022/10/27 06:58:24;;;;;;;6.03;2.20;;;14.50;72.00;;;;;;4782849;29;20501;-49
2022/10/27 07:00:51;;;;;;;5.10;2.22;;;14.50;72.20;;;;;;4779008;30;20051;-49
2022/10/27 07:03:18;;;;;;;3.90;1.83;;;14.50;72.40;;;;;;4784025;29;20051;-49
2022/10/27 07:05:44;;;;;;;6.38;2.13;;;14.50;72.60;;;;;;4785453;29;20035;-50
2022/10/27 07:08:11;;;;;;;4.50;2.00;;;14.60;73.10;;;;;;4784255;30;20051;-49
2022/10/27 07:10:38;;;;;;;5.28;2.20;;;14.50;73.20;;;;;;4778929;29;20108;-48
2022/10/27 07:13:05;;;;;;;3.25;1.98;;;14.60;73.30;;;;;;4784085;29;20051;-48
2022/10/27 07:15:32;;;;;;;4.97;1.70;;;14.60;74.00;;;;;;4783978;29;20062;-49
2022/10/27 07:18:05;;;;;;;3.42;1.80;;;14.60;73.60;;;;;;4783484;29;20042;-50
2022/10/27 07:20:33;;;;;;;4.47;1.75;;;14.70;74.10;;;;;;4784578;29;20478;-52
2022/10/27 07:23:01;;;;;;;2.63;2.03;;;14.70;74.20;;;;;;4783462;29;20663;-51
2022/10/27 07:25:28;;;;;;;2.08;1.45;;;14.70;74.40;;;;;;4784370;30;20054;-52
2022/10/27 07:27:56;;;;;;;6.32;1.90;;;14.80;74.50;;;;;;4784195;29;20039;-52
2022/10/27 07:30:26;;;;;;;4.00;1.60;;;14.80;74.50;;;;;;4784414;29;20051;-51
2022/10/27 07:32:53;;;;;;;3.50;1.88;;;14.80;74.60;;;;;;4783143;29;20051;-49
2022/10/27 07:35:20;;;;;;;5.82;2.08;;;14.90;74.70;;;;;;4784255;29;20047;-53
2022/10/27 07:37:47;;;;;;;6.85;2.35;;;14.90;74.90;;;;;;4783507;29;20047;-50
2022/10/27 07:40:17;;;;;;;3.63;1.70;;;15.00;75.10;;;;;;4783714;29;20067;-50
2022/10/27 07:42:49;;;;;;;4.85;2.00;;;15.10;75.30;;;;;;4782937;29;20058;-51
2022/10/27 07:45:17;;;;;;;;;;;15.10;75.60;;;;;;4784657;29;20677;-51
2022/10/27 07:47:55;;;;;;;4.95;1.90;;;15.20;76.00;;;;;;4783761;29;20315;-47
2022/10/27 07:50:27;;;;;;;3.80;2.10;;;15.30;75.70;;;;;;4783982;29;20043;-48
2022/10/27 07:52:55;;;;;;;5.45;3.03;;;15.40;75.40;;;;;;4783131;29;20051;-50
2022/10/27 07:55:24;;;;;;;4.80;2.60;;;15.40;75.50;;;;;;4798515;29;20047;-53
2022/10/27 07:58:06;;;;;;;8.68;2.50;;;15.40;75.70;;;;;;4784411;29;20059;-51
2022/10/27 08:00:34;;;;;;;8.70;2.47;;;15.50;76.50;;;;;;4782677;29;20100;-48
2022/10/27 08:03:03;;;;;;;9.13;3.30;;;15.60;76.00;;;;;;4783981;29;20615;-48
2022/10/27 08:05:32;;;;;;;9.95;3.10;;;15.70;76.10;;;;;;4788465;29;20054;-49
2022/10/27 08:08:04;;;;;;;8.98;3.05;;;15.70;76.10;;;;;;4787113;29;20063;-50
2022/10/27 08:10:33;;;;;;;6.70;2.75;;;15.80;76.40;;;;;;4785954;29;20517;-51
2022/10/27 08:13:01;;;;;;;7.22;2.72;;;15.90;76.20;;;;;;4786028;29;20134;-49
2022/10/27 08:15:28;;;;;;;7.88;3.67;;;15.90;76.00;;;;;;4788462;29;20059;-49
2022/10/27 08:17:58;;;;;;;8.25;3.15;;;16.00;76.10;;;;;;4787883;29;20066;-48
2022/10/27 08:20:26;;;;;;;6.80;2.90;;;16.10;76.10;;;;;;4787580;29;20112;-49
2022/10/27 08:22:58;;;;;;;5.55;2.33;;;16.20;76.00;;;;;;4787580;29;20516;-48
2022/10/27 08:25:26;;;;;;;7.18;2.13;;;16.20;76.00;;;;;;4788703;30;20051;-51
2022/10/27 08:27:52;;;;;;;10.18;2.47;;;16.30;75.80;;;;;;4786421;29;20665;-50
2022/10/27 08:30:21;;;;;;;9.50;2.55;;;16.40;75.80;;;;;;4787714;29;20047;-51
2022/10/27 08:32:48;;;;;;;9.55;3.13;;;16.50;75.80;;;;;;4787758;29;20051;-49
2022/10/27 08:35:16;;;;;;;6.30;3.15;;;16.50;75.60;;;;;;4787934;29;20098;-52
2022/10/27 08:37:43;;;;;;;12.65;3.67;;;16.60;75.40;;;;;;4786455;29;20047;-48
2022/10/27 08:40:10;;;;;;;6.53;2.70;;;16.60;75.40;;;;;;4785974;30;20047;-49
2022/10/27 08:42:54;;;;;;;4.65;2.00;;;16.70;75.40;;;;;;4786746;29;20051;-50
2022/10/27 08:45:30;;;;;;;7.28;3.13;;;16.80;75.40;;;;;;4787600;29;20590;-53
2022/10/27 08:47:58;;;;;;;3.92;1.70;;;16.80;75.10;;;;;;4786666;29;20036;-51
2022/10/27 08:50:32;;;;;;;6.65;2.15;;;16.90;74.80;;;;;;4787440;29;20130;-48
2022/10/27 08:53:02;;;;;;;6.03;2.05;;;16.90;74.80;;;;;;4786456;29;20059;-49
2022/10/27 08:55:43;;;;;;;5.80;2.15;;;17.00;74.60;;;;;;4788349;29;20421;-48
2022/10/27 08:58:16;;;;;;;4.80;2.20;;;17.10;74.60;;;;;;4787285;29;20043;-51
2022/10/27 09:01:03;;;;;;;6.15;1.80;;;17.10;74.30;;;;;;4787463;29;20059;-52
2022/10/27 09:04:08;;;;;;;5.80;2.10;;;17.20;74.40;;;;;;4786965;30;20083;-53
2022/10/27 09:06:54;;;;;;;4.15;1.77;;;17.20;74.30;;;;;;4787225;29;20078;-51
2022/10/27 09:09:41;;;;;;;5.90;1.95;;;17.30;73.90;;;;;;4787484;29;20043;-51
2022/10/27 09:12:39;;;;;;;4.72;2.85;;;17.40;73.80;;;;;;4786243;29;20732;-51
2022/10/27 09:15:24;;;;;;;8.23;3.75;;;17.50;73.90;;;;;;4787398;29;20621;-51
2022/10/27 09:18:03;;;;;;;5.38;3.03;;;17.60;73.90;;;;;;4785855;29;20048;-50
2022/10/27 09:20:37;;;;;;;4.40;2.28;;;17.70;73.90;;;;;;4787201;29;20048;-52
2022/10/27 09:23:09;;;;;;;2.13;1.63;;;17.70;73.40;;;;;;4786625;30;20075;-53
2022/10/27 09:25:39;;;;;;;5.32;2.38;;;17.80;73.40;;;;;;4785847;29;20126;-53
2022/10/27 09:28:16;;;;;;;2.63;1.42;;;17.80;73.10;;;;;;4786376;29;20039;-49
2022/10/27 09:30:44;;;;;;;2.85;1.75;;;17.90;73.00;;;;;;4788683;29;20118;-53
2022/10/27 09:33:16;;;;;;;2.38;1.20;;;18.00;72.70;;;;;;4785476;30;20047;-53
2022/10/27 09:35:43;;;;;;;4.68;1.15;;;18.00;72.60;;;;;;4786425;29;20539;-52
2022/10/27 09:38:16;;;;;;;2.20;1.20;;;18.10;72.40;;;;;;4786531;29;20047;-53
2022/10/27 09:40:43;;;;;;;4.50;1.33;;;18.20;72.10;;;;;;4786952;29;20054;-51
2022/10/27 09:43:10;;;;;;;5.68;1.80;;;18.30;72.00;;;;;;4785157;29;20035;-52
2022/10/27 09:45:41;;;;;;;1.25;1.10;;;18.40;71.80;;;;;;4782548;29;20047;-52
2022/10/27 09:48:18;;;;;;;2.50;1.23;;;18.40;71.70;;;;;;4786457;29;20054;-52
2022/10/27 09:50:52;;;;;;;2.40;1.05;;;18.50;71.60;;;;;;4786344;29;20047;-52
2022/10/27 09:53:43;;;;;;;4.43;1.52;;;18.60;71.50;;;;;;4784528;29;20043;-53
2022/10/27 09:56:32;;;;;;;4.20;2.28;;;18.70;71.40;;;;;;4781505;29;20138;-51
2022/10/27 09:59:02;;;;;;;4.82;1.38;;;18.80;71.30;;;;;;4771236;29;20567;-49
2022/10/27 10:01:44;;;;;;;3.83;1.13;;;18.80;71.20;;;;;;4786334;30;20051;-51
2022/10/27 10:04:41;;;;;;;1.67;0.90;;;18.90;70.70;;;;;;4781650;30;20051;-50
2022/10/27 10:07:34;;;;;;;2.90;1.70;;;19.00;70.50;;;;;;4784944;29;20082;-51
2022/10/27 10:10:02;;;;;;;1.42;1.00;;;19.10;70.50;;;;;;4784111;29;20062;-51
2022/10/27 10:12:29;;;;;;;6.78;1.77;;;19.20;70.40;;;;;;4784641;29;20043;-53
2022/10/27 10:15:15;;;;;;;5.05;1.10;;;19.20;70.20;;;;;;4785161;29;20047;-50
2022/10/27 10:17:51;;;;;;;1.65;1.33;;;19.30;69.70;;;;;;4786290;29;20078;-51
2022/10/27 10:20:44;;;;;;;6.47;1.40;;;19.40;69.20;;;;;;4789415;29;20509;-48
2022/10/27 10:23:20;;;;;;;2.20;1.08;;;19.40;69.00;;;;;;4782558;30;20063;-53
2022/10/27 10:25:49;;;;;;;2.08;1.60;;;19.50;69.10;;;;;;4784322;29;20131;-53
2022/10/27 10:28:36;;;;;;;1.65;0.85;;;19.50;69.00;;;;;;4784945;30;20055;-53
2022/10/27 10:31:06;;;;;;;3.13;1.10;;;19.60;69.00;;;;;;4800503;29;20142;-48
2022/10/27 10:33:39;;;;;;;3.05;1.20;;;19.60;68.90;;;;;;4784179;29;20146;-53
2022/10/27 10:36:32;;;;;;;5.53;1.25;;;19.70;68.70;;;;;;4783088;29;20047;-51
2022/10/27 10:39:00;;;;;;;4.50;1.10;;;19.80;68.60;;;;;;4784947;29;20047;-52
2022/10/27 10:41:28;;;;;;;6.28;1.85;;;19.80;68.80;;;;;;4797638;29;20057;-52
2022/10/27 10:44:14;;;;;;;2.67;1.10;;;19.90;68.80;;;;;;4784376;30;20048;-51
2022/10/27 10:46:51;;;;;;;4.88;1.40;;;20.00;68.30;;;;;;4785324;29;20043;-53
2022/10/27 10:49:25;;;;;;;5.82;1.85;;;20.10;68.30;;;;;;4784292;29;20042;-53
2022/10/27 10:51:56;;;;;;;4.50;1.45;;;20.10;68.30;;;;;;4784507;29;21295;-50
2022/10/27 10:54:36;;;;;;;5.15;1.27;;;20.20;68.30;;;;;;4784449;30;20118;-53
2022/10/27 10:57:03;;;;;;;7.60;1.20;;;20.30;68.10;;;;;;4784862;29;20062;-49
2022/10/27 10:59:33;;;;;;;3.70;1.13;;;20.40;67.90;;;;;;4783692;29;20122;-49
2022/10/27 11:02:29;;;;;;;5.47;1.38;;;20.50;67.90;;;;;;4785000;29;20071;-48
2022/10/27 11:05:09;;;;;;;5.13;1.38;;;20.60;67.60;;;;;;4784727;29;20044;-53
2022/10/27 11:07:36;;;;;;;7.68;2.00;;;20.70;67.60;;;;;;4778223;30;20051;-48
2022/10/27 11:10:13;;;;;;;5.65;1.83;;;20.80;67.60;;;;;;4784894;30;20509;-48
2022/10/27 11:12:52;;;;;;;5.38;1.63;;;20.80;67.20;;;;;;4798835;29;20130;-47
2022/10/27 11:15:24;;;;;;;4.35;1.35;;;20.90;66.80;;;;;;4784333;29;20119;-52
2022/10/27 11:17:55;;;;;;;2.63;1.05;;;21.00;67.00;;;;;;4784558;29;20035;-49
2022/10/27 11:20:26;;;;;;;3.13;0.82;;;21.10;66.90;;;;;;4800919;24;20053;-52
2022/10/27 11:22:55;;;;;;;4.25;2.00;;;21.20;66.90;;;;;;4784782;29;20502;-54
2022/10/27 11:25:33;;;;;;;3.28;1.15;;;21.30;67.00;;;;;;4784742;29;20069;-52
2022/10/27 11:28:15;;;;;;;3.72;1.30;;;21.30;66.80;;;;;;4789233;29;20054;-54
2022/10/27 11:30:59;;;;;;;5.95;1.50;;;21.50;66.60;;;;;;4784852;29;20058;-55
2022/10/27 11:33:50;;;;;;;3.65;1.50;;;21.50;66.40;;;;;;4784587;29;20573;-51
2022/10/27 11:36:37;;;;;;;5.03;1.40;;;21.60;66.00;;;;;;4776792;29;20043;-54
2022/10/27 11:39:35;;;;;;;4.05;1.63;;;21.70;65.70;;;;;;4785337;29;20089;-52
2022/10/27 11:42:30;;;;;;;1.33;1.10;;;21.80;65.70;;;;;;4783221;29;20181;-52
2022/10/27 11:45:20;;;;;;;3.42;1.60;;;21.90;65.70;;;;;;4785098;29;20074;-54
2022/10/27 11:47:58;;;;;;;5.07;0.90;;;22.00;65.50;;;;;;4782337;30;20052;-51
2022/10/27 11:50:42;;;;;;;1.98;1.00;;;22.00;65.50;;;;;;4797540;29;20043;-54
2022/10/27 11:53:09;;;;;;;3.47;1.30;;;22.10;65.20;;;;;;4785155;30;20051;-54
2022/10/27 11:56:02;;;;;;;3.53;1.55;;;22.10;65.50;;;;;;4777865;29;20047;-54
2022/10/27 11:58:59;;;;;;;2.42;1.25;;;22.20;65.20;;;;;;4795914;29;20119;-54
2022/10/27 12:02:11;;;;;;;3.65;1.25;;;22.30;65.30;;;;;;4784826;29;20074;-54
2022/10/27 12:04:53;;;;;;;3.88;1.05;;;22.30;65.20;;;;;;4783385;29;20094;-55
2022/10/27 12:07:50;;;;;;;5.55;1.70;;;22.50;64.70;;;;;;4782411;29;20055;-53
2022/10/27 12:11:01;;;;;;;2.35;1.40;;;22.50;64.50;;;;;;4778593;29;20100;-54
2022/10/27 12:13:40;;;;;;;2.85;1.10;;;22.60;64.50;;;;;;4764314;30;20051;-55
2022/10/27 12:16:14;;;;;;;0.90;0.80;;;22.70;64.70;;;;;;4780509;29;20047;-54
2022/10/27 12:18:56;;;;;;;3.40;1.00;;;22.80;64.90;;;;;;4785293;29;20057;-54
2022/10/27 12:21:41;;;;;;;3.95;1.60;;;22.90;64.60;;;;;;4789450;29;20047;-54
2022/10/27 12:24:28;;;;;;;7.45;1.20;;;22.90;64.60;;;;;;4780247;29;20138;-54
2022/10/27 12:26:58;;;;;;;3.60;1.05;;;23.10;63.80;;;;;;4784247;30;20054;-55
2022/10/27 12:29:38;;;;;;;1.58;0.90;;;23.10;63.60;;;;;;4790867;29;20441;-56
2022/10/27 12:32:12;;;;;;;4.00;0.95;;;23.30;63.70;;;;;;4792340;29;20735;-55
2022/10/27 12:34:45;;;;;;;3.50;1.10;;;23.30;63.20;;;;;;4780491;30;20059;-55
2022/10/27 12:37:20;;;;;;;2.17;0.80;;;23.40;63.30;;;;;;4784192;29;20085;-55
2022/10/27 12:40:03;;;;;;;4.40;1.08;;;23.50;62.80;;;;;;4783669;29;20047;-55
2022/10/27 12:42:47;;;;;;;1.98;0.82;;;23.60;62.90;;;;;;4783766;29;20059;-53
2022/10/27 12:45:48;;;;;;;4.75;1.00;;;23.60;62.40;;;;;;4785041;29;20082;-53
2022/10/27 12:48:40;;;;;;;2.03;1.65;;;23.70;62.50;;;;;;4766524;30;20051;-55
2022/10/27 12:51:30;;;;;;;2.65;1.33;;;23.80;62.00;;;;;;4774623;30;20493;-54
2022/10/27 12:54:39;;;;;;;3.28;1.13;;;23.90;62.40;;;;;;4788211;30;20058;-56
2022/10/27 12:57:12;;;;;;;1.63;0.77;;;23.90;61.90;;;;;;4780921;30;20522;-55
2022/10/27 13:00:00;;;;;;;3.25;1.27;;;24.00;61.60;;;;;;4786622;29;20055;-55
2022/10/27 13:02:34;;;;;;;2.85;1.58;;;24.00;61.50;;;;;;4783331;30;20066;-55
2022/10/27 13:05:50;;;;;;;1.65;1.05;;;24.00;61.80;;;;;;4787586;29;20047;-55
2022/10/27 13:09:01;;;;;;;3.72;1.40;;;24.10;61.50;;;;;;4787620;29;20070;-54
2022/10/27 13:11:42;;;;;;;5.60;0.90;;;24.20;61.60;;;;;;4780124;29;20070;-54
2022/10/27 13:14:17;;;;;;;1.85;0.88;;;24.30;61.20;;;;;;4787249;29;20417;-55
2022/10/27 13:16:59;;;;;;;4.38;1.05;;;24.30;61.20;;;;;;4788571;29;20192;-54
2022/10/27 13:20:18;;;;;;;3.10;1.33;;;24.40;60.90;;;;;;4788576;29;20109;-54